createdAt,value
2019-02-21T00:00:24.609Z,1018.26
2019-02-21T00:01:23.738Z,1018.27
2019-02-21T00:02:23.603Z,1018.29
2019-02-21T00:03:23.608Z,1018.33
2019-02-21T00:04:23.598Z,1018.31
2019-02-21T00:05:23.574Z,1018.26
2019-02-21T00:06:23.550Z,1018.30
2019-02-21T00:07:23.639Z,1018.31
2019-02-21T00:08:23.570Z,1018.33
2019-02-21T00:09:23.542Z,1018.29
2019-02-21T00:10:23.552Z,1018.33
2019-02-21T00:11:23.513Z,1018.25
2019-02-21T00:12:23.552Z,1018.30
2019-02-21T00:13:23.488Z,1018.29
2019-02-21T00:14:23.473Z,1018.24
2019-02-21T00:15:23.594Z,1018.24
2019-02-21T00:16:23.462Z,1018.27
2019-02-21T00:17:23.445Z,1018.28
2019-02-21T00:18:23.405Z,1018.24
2019-02-21T00:19:23.400Z,1018.27
2019-02-21T00:20:23.394Z,1018.26
2019-02-21T00:21:23.384Z,1018.30
2019-02-21T00:22:23.395Z,1018.29
2019-02-21T00:23:23.347Z,1018.31
2019-02-21T00:24:23.335Z,1018.33
2019-02-21T00:25:23.327Z,1018.30
2019-02-21T00:26:23.355Z,1018.26
2019-02-21T00:27:23.313Z,1018.25
2019-02-21T00:28:23.344Z,1018.22
2019-02-21T00:29:23.301Z,1018.28
2019-02-21T00:30:23.273Z,1018.25
2019-02-21T00:31:23.329Z,1018.23
2019-02-21T00:32:23.266Z,1018.26
2019-02-21T00:33:23.279Z,1018.25
2019-02-21T00:34:23.226Z,1018.23
2019-02-21T00:35:23.239Z,1018.22
2019-02-21T00:36:23.214Z,1018.20
2019-02-21T00:37:23.205Z,1018.22
2019-02-21T00:38:23.222Z,1018.21
2019-02-21T00:39:23.218Z,1018.23
2019-02-21T00:40:23.171Z,1018.23
2019-02-21T00:41:23.166Z,1018.29
2019-02-21T00:42:23.145Z,1018.25
2019-02-21T00:43:23.147Z,1018.23
2019-02-21T00:44:23.147Z,1018.24
2019-02-21T00:45:23.113Z,1018.31
2019-02-21T00:46:23.113Z,1018.28
2019-02-21T00:47:23.101Z,1018.28
2019-02-21T00:48:23.085Z,1018.25
2019-02-21T00:49:23.121Z,1018.23
2019-02-21T00:50:23.063Z,1018.19
2019-02-21T00:51:23.058Z,1018.17
2019-02-21T00:52:23.040Z,1018.17
2019-02-21T00:53:23.044Z,1018.20
2019-02-21T00:54:23.039Z,1018.24
2019-02-21T00:55:23.668Z,1018.21
2019-02-21T00:56:23.056Z,1018.21
2019-02-21T00:57:22.983Z,1018.22
2019-02-21T00:58:23.056Z,1018.20
2019-02-21T00:59:23.056Z,1018.17
2019-02-21T01:00:23.684Z,1018.15
2019-02-21T01:01:22.988Z,1018.13
2019-02-21T01:02:22.942Z,1018.14
2019-02-21T01:03:22.937Z,1018.14
2019-02-21T01:04:22.950Z,1018.10
2019-02-21T01:05:22.913Z,1018.11
2019-02-21T01:06:22.924Z,1018.11
2019-02-21T01:07:22.889Z,1018.10
2019-02-21T01:08:22.868Z,1018.15
2019-02-21T01:09:22.863Z,1018.14
2019-02-21T01:10:22.860Z,1018.15
2019-02-21T01:11:22.858Z,1018.16
2019-02-21T01:12:23.673Z,1018.19
2019-02-21T01:13:22.820Z,1018.14
2019-02-21T01:14:22.816Z,1018.12
2019-02-21T01:15:22.809Z,1018.15
2019-02-21T01:16:22.782Z,1018.09
2019-02-21T01:17:22.794Z,1018.12
2019-02-21T01:18:22.768Z,1018.09
2019-02-21T01:19:22.756Z,1018.10
2019-02-21T01:20:22.750Z,1018.09
2019-02-21T01:21:22.726Z,1018.07
2019-02-21T01:22:22.756Z,1018.06
2019-02-21T01:23:22.715Z,1018.08
2019-02-21T01:24:22.710Z,1018.08
2019-02-21T01:25:22.706Z,1018.11
2019-02-21T01:26:22.721Z,1018.09
2019-02-21T01:27:22.663Z,1018.11
2019-02-21T01:28:22.655Z,1018.10
2019-02-21T01:29:22.646Z,1018.11
2019-02-21T01:30:22.647Z,1018.13
2019-02-21T01:31:22.625Z,1018.11
2019-02-21T01:32:22.648Z,1018.08
2019-02-21T01:33:22.678Z,1018.10
2019-02-21T01:34:22.638Z,1018.11
2019-02-21T01:35:22.732Z,1018.11
2019-02-21T01:36:22.582Z,1018.05
2019-02-21T01:37:22.597Z,1018.03
2019-02-21T01:38:22.547Z,1018.04
2019-02-21T01:39:22.592Z,1018.05
2019-02-21T01:40:22.571Z,1018.03
2019-02-21T01:41:22.516Z,1018.00
2019-02-21T01:42:22.523Z,1017.99
2019-02-21T01:43:22.538Z,1018.02
2019-02-21T01:44:22.484Z,1017.96
2019-02-21T01:45:22.477Z,1017.96
2019-02-21T01:46:22.473Z,1017.98
2019-02-21T01:47:22.462Z,1017.91
2019-02-21T01:48:22.476Z,1017.88
2019-02-21T01:49:22.440Z,1017.95
2019-02-21T01:50:22.420Z,1017.90
2019-02-21T01:51:22.415Z,1017.92
2019-02-21T01:52:22.404Z,1017.89
2019-02-21T01:53:22.422Z,1017.87
2019-02-21T01:54:22.417Z,1017.92
2019-02-21T01:55:22.365Z,1017.92
2019-02-21T01:56:22.357Z,1017.92
2019-02-21T01:57:22.350Z,1017.97
2019-02-21T01:58:22.403Z,1017.97
2019-02-21T01:59:22.337Z,1017.98
2019-02-21T02:00:22.334Z,1017.91
2019-02-21T02:01:22.312Z,1017.93
2019-02-21T02:02:22.300Z,1017.98
2019-02-21T02:03:22.283Z,1017.94
2019-02-21T02:04:22.311Z,1017.93
2019-02-21T02:05:22.272Z,1017.94
2019-02-21T02:06:22.265Z,1017.95
2019-02-21T02:07:22.250Z,1017.96
2019-02-21T02:08:22.238Z,1017.93
2019-02-21T02:09:22.252Z,1017.96
2019-02-21T02:10:22.237Z,1017.94
2019-02-21T02:11:22.428Z,1017.94
2019-02-21T02:12:22.203Z,1017.91
2019-02-21T02:13:24.911Z,1017.93
2019-02-21T02:14:22.174Z,1017.94
2019-02-21T02:15:22.188Z,1017.90
2019-02-21T02:16:22.147Z,1017.93
2019-02-21T02:17:22.149Z,1017.88
2019-02-21T02:18:22.124Z,1017.86
2019-02-21T02:19:22.117Z,1017.87
2019-02-21T02:20:22.145Z,1017.88
2019-02-21T02:21:22.101Z,1017.88
2019-02-21T02:22:22.097Z,1017.90
2019-02-21T02:23:22.101Z,1017.89
2019-02-21T02:24:22.063Z,1017.92
2019-02-21T02:25:22.107Z,1017.85
2019-02-21T02:26:22.039Z,1017.91
2019-02-21T02:27:22.055Z,1017.84
2019-02-21T02:28:22.077Z,1017.83
2019-02-21T02:29:22.021Z,1017.80
2019-02-21T02:30:22.130Z,1017.80
2019-02-21T02:31:23.695Z,1017.76
2019-02-21T02:32:21.983Z,1017.79
2019-02-21T02:33:21.981Z,1017.72
2019-02-21T02:34:22.002Z,1017.75
2019-02-21T02:35:21.943Z,1017.78
2019-02-21T02:36:21.962Z,1017.75
2019-02-21T02:37:21.935Z,1017.77
2019-02-21T02:38:21.927Z,1017.78
2019-02-21T02:39:21.911Z,1017.74
2019-02-21T02:40:21.897Z,1017.76
2019-02-21T02:41:21.934Z,1017.78
2019-02-21T02:42:21.991Z,1017.78
2019-02-21T02:43:21.864Z,1017.76
2019-02-21T02:44:21.886Z,1017.79
2019-02-21T02:45:21.840Z,1017.77
2019-02-21T02:46:21.837Z,1017.82
2019-02-21T02:47:21.843Z,1017.79
2019-02-21T02:48:21.807Z,1017.78
2019-02-21T02:49:21.792Z,1017.78
2019-02-21T02:50:21.795Z,1017.75
2019-02-21T02:51:21.786Z,1017.76
2019-02-21T02:52:21.806Z,1017.79
2019-02-21T02:53:21.789Z,1017.80
2019-02-21T02:54:21.740Z,1017.76
2019-02-21T02:55:21.731Z,1017.72
2019-02-21T02:56:21.735Z,1017.77
2019-02-21T02:57:21.747Z,1017.76
2019-02-21T02:58:21.700Z,1017.77
2019-02-21T02:59:21.684Z,1017.72
2019-02-21T03:00:21.675Z,1017.78
2019-02-21T03:01:34.007Z,1017.77
2019-02-21T03:02:22.693Z,1017.79
2019-02-21T03:03:21.712Z,1017.76
2019-02-21T03:04:21.697Z,1017.78
2019-02-21T03:05:21.629Z,1017.76
2019-02-21T03:06:21.610Z,1017.80
2019-02-21T03:07:21.610Z,1017.78
2019-02-21T03:08:21.624Z,1017.79
2019-02-21T03:09:21.582Z,1017.77
2019-02-21T03:10:21.583Z,1017.76
2019-02-21T03:11:21.562Z,1017.78
2019-02-21T03:12:21.550Z,1017.77
2019-02-21T03:13:21.598Z,1017.78
2019-02-21T03:14:21.535Z,1017.79
2019-02-21T03:15:21.529Z,1017.79
2019-02-21T03:16:21.537Z,1017.80
2019-02-21T03:17:21.505Z,1017.84
2019-02-21T03:18:21.484Z,1017.86
2019-02-21T03:19:21.508Z,1017.86
2019-02-21T03:20:21.466Z,1017.88
2019-02-21T03:21:21.464Z,1017.92
2019-02-21T03:22:21.451Z,1017.89
2019-02-21T03:23:21.447Z,1017.86
2019-02-21T03:24:21.450Z,1017.87
2019-02-21T03:25:21.420Z,1017.87
2019-02-21T03:26:21.405Z,1017.88
2019-02-21T03:27:21.425Z,1017.86
2019-02-21T03:28:21.382Z,1017.83
2019-02-21T03:29:21.400Z,1017.87
2019-02-21T03:30:21.357Z,1017.89
2019-02-21T03:31:21.350Z,1017.91
2019-02-21T03:32:21.343Z,1017.90
2019-02-21T03:33:21.332Z,1017.91
2019-02-21T03:34:21.360Z,1017.94
2019-02-21T03:35:21.319Z,1017.94
2019-02-21T03:36:21.303Z,1017.93
2019-02-21T03:37:21.286Z,1017.94
2019-02-21T03:38:21.282Z,1017.91
2019-02-21T03:39:21.279Z,1017.92
2019-02-21T03:40:21.283Z,1017.92
2019-02-21T03:41:21.233Z,1017.94
2019-02-21T03:42:21.232Z,1017.91
2019-02-21T03:43:21.222Z,1017.96
2019-02-21T03:44:21.212Z,1017.93
2019-02-21T03:45:21.229Z,1017.96
2019-02-21T03:46:21.190Z,1017.99
2019-02-21T03:47:21.183Z,1017.98
2019-02-21T03:48:21.163Z,1018.00
2019-02-21T03:49:21.154Z,1017.99
2019-02-21T03:50:21.167Z,1017.98
2019-02-21T03:51:21.145Z,1017.98
2019-02-21T03:52:21.128Z,1017.97
2019-02-21T03:53:21.196Z,1017.97
2019-02-21T03:54:21.104Z,1017.98
2019-02-21T03:55:21.134Z,1017.97
2019-02-21T03:56:21.104Z,1017.94
2019-02-21T03:57:21.065Z,1017.97
2019-02-21T03:58:21.063Z,1017.96
2019-02-21T03:59:21.051Z,1017.99
2019-02-21T04:00:21.031Z,1017.98
2019-02-21T04:01:21.054Z,1017.92
2019-02-21T04:02:21.044Z,1017.98
2019-02-21T04:03:21.022Z,1017.94
2019-02-21T04:04:21.144Z,1017.94
2019-02-21T04:05:20.984Z,1017.92
2019-02-21T04:06:21.068Z,1017.95
2019-02-21T04:07:21.941Z,1017.95
2019-02-21T04:08:20.958Z,1017.90
2019-02-21T04:09:20.939Z,1017.92
2019-02-21T04:10:20.933Z,1017.92
2019-02-21T04:11:20.926Z,1017.93
2019-02-21T04:12:20.937Z,1017.94
2019-02-21T04:13:20.903Z,1017.94
2019-02-21T04:14:21.234Z,1017.94
2019-02-21T04:15:20.889Z,1017.93
2019-02-21T04:16:20.868Z,1017.92
2019-02-21T04:17:20.904Z,1017.86
2019-02-21T04:18:20.838Z,1017.95
2019-02-21T04:19:20.838Z,1017.91
2019-02-21T04:20:20.908Z,1017.91
2019-02-21T04:21:20.897Z,1018.00
2019-02-21T04:22:20.808Z,1017.95
2019-02-21T04:23:20.821Z,1017.91
2019-02-21T04:24:20.780Z,1017.90
2019-02-21T04:25:20.848Z,1017.98
2019-02-21T04:26:20.763Z,1017.93
2019-02-21T04:27:20.739Z,1017.97
2019-02-21T04:28:20.778Z,1017.90
2019-02-21T04:29:20.725Z,1017.88
2019-02-21T04:30:20.731Z,1017.88
2019-02-21T04:31:20.709Z,1017.91
2019-02-21T04:32:20.719Z,1017.99
2019-02-21T04:33:20.683Z,1017.91
2019-02-21T04:34:20.698Z,1017.94
2019-02-21T04:35:29.306Z,1017.92
2019-02-21T04:36:23.245Z,1017.97
2019-02-21T04:37:20.640Z,1017.97
2019-02-21T04:38:20.619Z,1018.03
2019-02-21T04:39:20.642Z,1017.92
2019-02-21T04:40:20.606Z,1018.00
2019-02-21T04:41:20.593Z,1017.94
2019-02-21T04:42:20.595Z,1017.92
2019-02-21T04:43:20.571Z,1017.98
2019-02-21T04:44:20.559Z,1017.97
2019-02-21T04:45:20.570Z,1017.95
2019-02-21T04:46:20.539Z,1017.93
2019-02-21T04:47:20.532Z,1017.90
2019-02-21T04:48:20.545Z,1017.95
2019-02-21T04:49:20.502Z,1017.97
2019-02-21T04:50:20.490Z,1017.97
2019-02-21T04:51:20.482Z,1017.88
2019-02-21T04:52:20.475Z,1017.94
2019-02-21T04:53:20.464Z,1017.88
2019-02-21T04:54:20.476Z,1017.87
2019-02-21T04:55:20.447Z,1017.91
2019-02-21T04:56:20.430Z,1017.86
2019-02-21T04:57:20.423Z,1017.87
2019-02-21T04:58:20.427Z,1017.92
2019-02-21T04:59:20.421Z,1017.91
2019-02-21T05:00:20.395Z,1017.93
2019-02-21T05:01:20.403Z,1017.91
2019-02-21T05:02:28.475Z,1017.92
2019-02-21T05:03:21.374Z,1017.97
2019-02-21T05:04:20.378Z,1017.96
2019-02-21T05:05:20.337Z,1017.93
2019-02-21T05:06:20.334Z,1017.91
2019-02-21T05:07:20.318Z,1017.93
2019-02-21T05:08:20.295Z,1017.87
2019-02-21T05:09:20.332Z,1017.91
2019-02-21T05:10:20.292Z,1017.84
2019-02-21T05:11:20.270Z,1017.91
2019-02-21T05:12:20.277Z,1017.92
2019-02-21T05:13:20.270Z,1017.91
2019-02-21T05:14:20.275Z,1017.89
2019-02-21T05:15:20.225Z,1017.86
2019-02-21T05:16:20.208Z,1017.83
2019-02-21T05:17:20.201Z,1017.85
2019-02-21T05:18:20.197Z,1017.78
2019-02-21T05:19:20.225Z,1017.87
2019-02-21T05:20:20.167Z,1017.75
2019-02-21T05:21:20.156Z,1017.85
2019-02-21T05:22:20.144Z,1017.68
2019-02-21T05:23:20.138Z,1017.76
2019-02-21T05:24:20.138Z,1017.79
2019-02-21T05:25:20.164Z,1017.79
2019-02-21T05:26:20.115Z,1017.87
2019-02-21T05:27:20.102Z,1017.87
2019-02-21T05:28:20.116Z,1017.91
2019-02-21T05:29:20.077Z,1017.85
2019-02-21T05:30:20.088Z,1017.89
2019-02-21T05:31:20.067Z,1017.86
2019-02-21T05:32:20.100Z,1017.88
2019-02-21T05:33:20.039Z,1017.87
2019-02-21T05:34:20.018Z,1017.91
2019-02-21T05:35:20.005Z,1017.91
2019-02-21T05:36:20.001Z,1017.87
2019-02-21T05:37:19.994Z,1017.85
2019-02-21T05:38:20.005Z,1017.77
2019-02-21T05:39:19.987Z,1017.78
2019-02-21T05:40:19.967Z,1017.80
2019-02-21T05:41:19.990Z,1017.71
2019-02-21T05:42:19.943Z,1017.75
2019-02-21T05:43:19.959Z,1017.68
2019-02-21T05:44:19.926Z,1017.73
2019-02-21T05:45:19.910Z,1017.70
2019-02-21T05:46:19.921Z,1017.71
2019-02-21T05:47:19.914Z,1017.66
2019-02-21T05:48:19.870Z,1017.69
2019-02-21T05:49:19.900Z,1017.73
2019-02-21T05:50:19.896Z,1017.67
2019-02-21T05:51:19.843Z,1017.70
2019-02-21T05:52:19.845Z,1017.69
2019-02-21T05:53:19.813Z,1017.64
2019-02-21T05:54:19.829Z,1017.63
2019-02-21T05:55:19.802Z,1017.63
2019-02-21T05:56:19.806Z,1017.66
2019-02-21T05:57:19.776Z,1017.69
2019-02-21T05:58:19.772Z,1017.65
2019-02-21T05:59:19.780Z,1017.73
2019-02-21T06:00:19.742Z,1017.65
2019-02-21T06:01:19.741Z,1017.71
2019-02-21T06:02:19.747Z,1017.69
2019-02-21T06:03:19.707Z,1017.69
2019-02-21T06:04:19.706Z,1017.67
2019-02-21T06:05:19.694Z,1017.63
2019-02-21T06:06:19.676Z,1017.65
2019-02-21T06:07:19.666Z,1017.69
2019-02-21T06:08:19.682Z,1017.73
2019-02-21T06:09:19.649Z,1017.78
2019-02-21T06:10:19.641Z,1017.73
2019-02-21T06:11:19.707Z,1017.70
2019-02-21T06:12:19.613Z,1017.69
2019-02-21T06:13:19.609Z,1017.65
2019-02-21T06:14:19.651Z,1017.67
2019-02-21T06:15:19.582Z,1017.65
2019-02-21T06:16:19.575Z,1017.59
2019-02-21T06:17:19.567Z,1017.63
2019-02-21T06:18:19.653Z,1017.66
2019-02-21T06:19:19.552Z,1017.66
2019-02-21T06:20:19.593Z,1017.64
2019-02-21T06:21:19.551Z,1017.65
2019-02-21T06:22:19.510Z,1017.65
2019-02-21T06:23:19.513Z,1017.66
2019-02-21T06:24:19.483Z,1017.69
2019-02-21T06:25:19.519Z,1017.64
2019-02-21T06:26:19.484Z,1017.64
2019-02-21T06:27:19.455Z,1017.63
2019-02-21T06:28:19.447Z,1017.66
2019-02-21T06:29:19.492Z,1017.66
2019-02-21T06:30:19.496Z,1017.64
2019-02-21T06:31:19.452Z,1017.68
2019-02-21T06:32:19.426Z,1017.67
2019-02-21T06:33:19.428Z,1017.68
2019-02-21T06:34:19.383Z,1017.70
2019-02-21T06:35:19.402Z,1017.65
2019-02-21T06:36:19.367Z,1017.65
2019-02-21T06:37:19.384Z,1017.68
2019-02-21T06:38:19.368Z,1017.68
2019-02-21T06:39:19.336Z,1017.66
2019-02-21T06:40:19.321Z,1017.66
2019-02-21T06:41:19.328Z,1017.62
2019-02-21T06:42:19.300Z,1017.67
2019-02-21T06:43:19.325Z,1017.65
2019-02-21T06:44:19.305Z,1017.64
2019-02-21T06:45:19.267Z,1017.67
2019-02-21T06:46:19.285Z,1017.68
2019-02-21T06:47:19.570Z,1017.68
2019-02-21T06:48:19.244Z,1017.64
2019-02-21T06:49:19.231Z,1017.67
2019-02-21T06:50:26.408Z,1017.64
2019-02-21T06:51:20.232Z,1017.65
2019-02-21T06:52:19.224Z,1017.66
2019-02-21T06:53:19.264Z,1017.61
2019-02-21T06:54:19.174Z,1017.60
2019-02-21T06:55:20.580Z,1017.61
2019-02-21T06:56:19.152Z,1017.62
2019-02-21T06:57:19.139Z,1017.61
2019-02-21T06:58:19.139Z,1017.64
2019-02-21T06:59:19.151Z,1017.62
2019-02-21T07:00:19.177Z,1017.64
2019-02-21T07:01:28.158Z,1017.66
2019-02-21T07:02:20.154Z,1017.66
2019-02-21T07:03:19.082Z,1017.60
2019-02-21T07:04:19.079Z,1017.60
2019-02-21T07:05:19.053Z,1017.66
2019-02-21T07:06:19.259Z,1017.63
2019-02-21T07:07:19.028Z,1017.66
2019-02-21T07:08:19.061Z,1017.59
2019-02-21T07:09:19.069Z,1017.58
2019-02-21T07:10:18.998Z,1017.57
2019-02-21T07:11:18.986Z,1017.58
2019-02-21T07:12:18.985Z,1017.57
2019-02-21T07:13:26.521Z,1017.66
2019-02-21T07:14:20.002Z,1017.66
2019-02-21T07:15:18.956Z,1017.67
2019-02-21T07:16:18.942Z,1017.69
2019-02-21T07:17:18.927Z,1017.69
2019-02-21T07:18:18.908Z,1017.72
2019-02-21T07:19:18.940Z,1017.79
2019-02-21T07:20:18.902Z,1017.71
2019-02-21T07:21:18.886Z,1017.69
2019-02-21T07:22:22.314Z,1017.75
2019-02-21T07:23:18.861Z,1017.74
2019-02-21T07:24:18.869Z,1017.80
2019-02-21T07:25:18.860Z,1017.83
2019-02-21T07:26:18.829Z,1017.80
2019-02-21T07:27:18.818Z,1017.81
2019-02-21T07:28:18.924Z,1017.75
2019-02-21T07:29:18.893Z,1017.78
2019-02-21T07:30:21.078Z,1017.83
2019-02-21T07:31:28.128Z,1017.81
2019-02-21T07:32:19.778Z,1017.86
2019-02-21T07:33:27.937Z,1017.83
2019-02-21T07:34:19.771Z,1017.85
2019-02-21T07:35:18.738Z,1017.85
2019-02-21T07:36:18.716Z,1017.84
2019-02-21T07:37:19.211Z,1017.86
2019-02-21T07:38:18.712Z,1017.92
2019-02-21T07:39:20.866Z,1017.95
2019-02-21T07:40:20.352Z,1017.93
2019-02-21T07:41:18.918Z,1017.96
2019-02-21T07:42:18.703Z,1017.97
2019-02-21T07:43:20.568Z,1018.00
2019-02-21T07:44:18.766Z,1018.03
2019-02-21T07:45:18.734Z,1018.01
2019-02-21T07:46:18.614Z,1018.02
2019-02-21T07:47:18.610Z,1018.02
2019-02-21T07:48:18.600Z,1018.03
2019-02-21T07:49:18.589Z,1017.98
2019-02-21T07:50:18.592Z,1018.08
2019-02-21T07:51:18.565Z,1018.07
2019-02-21T07:52:18.551Z,1018.09
2019-02-21T07:53:18.541Z,1018.13
2019-02-21T07:54:18.580Z,1018.08
2019-02-21T07:55:18.573Z,1018.15
2019-02-21T07:56:18.521Z,1018.17
2019-02-21T07:57:18.497Z,1018.13
2019-02-21T07:58:18.489Z,1018.18
2019-02-21T07:59:18.481Z,1018.11
2019-02-21T08:00:18.470Z,1018.17
2019-02-21T08:01:19.279Z,1018.13
2019-02-21T08:02:20.946Z,1018.16
2019-02-21T08:03:29.496Z,1018.12
2019-02-21T08:04:19.429Z,1018.13
2019-02-21T08:05:18.420Z,1018.16
2019-02-21T08:06:19.924Z,1018.17
2019-02-21T08:07:18.394Z,1018.15
2019-02-21T08:08:20.868Z,1018.26
2019-02-21T08:09:18.998Z,1018.20
2019-02-21T08:10:21.042Z,1018.20
2019-02-21T08:11:19.376Z,1018.22
2019-02-21T08:12:18.416Z,1018.19
2019-02-21T08:13:18.423Z,1018.23
2019-02-21T08:14:18.359Z,1018.24
2019-02-21T08:15:18.299Z,1018.24
2019-02-21T08:16:18.297Z,1018.21
2019-02-21T08:17:18.306Z,1018.27
2019-02-21T08:18:18.317Z,1018.25
2019-02-21T08:19:18.267Z,1018.22
2019-02-21T08:20:18.248Z,1018.25
2019-02-21T08:21:18.239Z,1018.30
2019-02-21T08:22:18.257Z,1018.31
2019-02-21T08:23:18.240Z,1018.34
2019-02-21T08:24:18.515Z,1018.32
2019-02-21T08:25:19.228Z,1018.33
2019-02-21T08:26:20.076Z,1018.31
2019-02-21T08:27:18.714Z,1018.32
2019-02-21T08:28:18.160Z,1018.28
2019-02-21T08:29:20.668Z,1018.27
2019-02-21T08:30:18.151Z,1018.27
2019-02-21T08:31:18.137Z,1018.38
2019-02-21T08:32:18.120Z,1018.32
2019-02-21T08:33:18.129Z,1018.32
2019-02-21T08:34:18.096Z,1018.32
2019-02-21T08:35:18.091Z,1018.31
2019-02-21T08:36:18.083Z,1018.26
2019-02-21T08:37:18.073Z,1018.29
2019-02-21T08:38:18.087Z,1018.29
2019-02-21T08:39:18.048Z,1018.32
2019-02-21T08:40:18.036Z,1018.32
2019-02-21T08:41:18.034Z,1018.31
2019-02-21T08:42:18.012Z,1018.33
2019-02-21T08:43:18.036Z,1018.29
2019-02-21T08:44:18.039Z,1018.25
2019-02-21T08:45:17.990Z,1018.25
2019-02-21T08:46:18.384Z,1018.28
2019-02-21T08:47:17.958Z,1018.19
2019-02-21T08:48:17.989Z,1018.20
2019-02-21T08:49:17.949Z,1018.19
2019-02-21T08:50:17.933Z,1018.22
2019-02-21T08:51:18.490Z,1018.27
2019-02-21T08:52:17.907Z,1018.27
2019-02-21T08:53:17.895Z,1018.23
2019-02-21T08:54:17.927Z,1018.28
2019-02-21T08:55:17.872Z,1018.25
2019-02-21T08:56:17.866Z,1018.22
2019-02-21T08:57:20.761Z,1018.23
2019-02-21T08:58:17.864Z,1018.21
2019-02-21T08:59:17.924Z,1018.22
2019-02-21T09:00:17.813Z,1018.25
2019-02-21T09:01:17.807Z,1018.27
2019-02-21T09:02:17.798Z,1018.26
2019-02-21T09:03:18.192Z,1018.31
2019-02-21T09:04:27.009Z,1018.27
2019-02-21T09:05:18.806Z,1018.28
2019-02-21T09:06:17.774Z,1018.27
2019-02-21T09:07:17.742Z,1018.27
2019-02-21T09:08:17.736Z,1018.24
2019-02-21T09:09:17.727Z,1018.22
2019-02-21T09:10:17.720Z,1018.23
2019-02-21T09:11:19.673Z,1018.25
2019-02-21T09:12:17.688Z,1018.18
2019-02-21T09:13:17.677Z,1018.26
2019-02-21T09:14:17.667Z,1018.25
2019-02-21T09:15:17.682Z,1018.21
2019-02-21T09:16:17.973Z,1018.21
2019-02-21T09:17:17.711Z,1018.23
2019-02-21T09:18:17.657Z,1018.23
2019-02-21T09:19:17.676Z,1018.24
2019-02-21T09:20:17.640Z,1018.29
2019-02-21T09:21:17.678Z,1018.21
2019-02-21T09:22:17.625Z,1018.23
2019-02-21T09:23:17.614Z,1018.21
2019-02-21T09:24:35.134Z,1018.16
2019-02-21T09:25:18.585Z,1018.18
2019-02-21T09:26:17.576Z,1018.16
2019-02-21T09:27:17.604Z,1018.16
2019-02-21T09:28:17.542Z,1018.19
2019-02-21T09:29:17.543Z,1018.19
2019-02-21T09:30:17.540Z,1018.26
2019-02-21T09:31:17.535Z,1018.27
2019-02-21T09:32:17.508Z,1018.24
2019-02-21T09:33:20.965Z,1018.22
2019-02-21T09:34:21.209Z,1018.20
2019-02-21T09:35:17.478Z,1018.22
2019-02-21T09:36:17.439Z,1018.25
2019-02-21T09:37:17.429Z,1018.23
2019-02-21T09:38:17.440Z,1018.18
2019-02-21T09:39:17.450Z,1018.14
2019-02-21T09:40:17.430Z,1018.15
2019-02-21T09:41:17.477Z,1018.15
2019-02-21T09:42:17.375Z,1018.22
2019-02-21T09:43:17.366Z,1018.18
2019-02-21T09:44:18.222Z,1018.08
2019-02-21T09:45:17.345Z,1018.07
2019-02-21T09:46:17.334Z,1018.05
2019-02-21T09:47:17.327Z,1018.11
2019-02-21T09:48:17.314Z,1018.06
2019-02-21T09:49:17.333Z,1018.02
2019-02-21T09:50:17.293Z,1018.07
2019-02-21T09:51:18.366Z,1017.98
2019-02-21T09:52:17.271Z,1018.01
2019-02-21T09:53:17.265Z,1018.05
2019-02-21T09:54:19.132Z,1018.12
2019-02-21T09:55:17.237Z,1018.04
2019-02-21T09:56:17.222Z,1018.09
2019-02-21T09:57:17.214Z,1018.04
2019-02-21T09:58:17.209Z,1018.01
2019-02-21T09:59:17.225Z,1018.04
2019-02-21T10:00:17.187Z,1018.01
2019-02-21T10:01:17.174Z,1018.03
2019-02-21T10:02:17.169Z,1018.04
2019-02-21T10:03:17.156Z,1018.08
2019-02-21T10:04:17.133Z,1018.08
2019-02-21T10:05:17.153Z,1018.09
2019-02-21T10:06:17.139Z,1018.10
2019-02-21T10:07:17.109Z,1018.13
2019-02-21T10:08:17.093Z,1018.13
2019-02-21T10:09:17.081Z,1018.17
2019-02-21T10:10:17.101Z,1018.10
2019-02-21T10:11:17.054Z,1018.05
2019-02-21T10:12:17.048Z,1018.06
2019-02-21T10:13:17.042Z,1018.06
2019-02-21T10:14:17.031Z,1018.02
2019-02-21T10:15:17.015Z,1018.02
2019-02-21T10:16:17.037Z,1018.06
2019-02-21T10:17:16.999Z,1017.97
2019-02-21T10:18:16.987Z,1017.95
2019-02-21T10:19:16.973Z,1017.91
2019-02-21T10:20:16.962Z,1017.87
2019-02-21T10:21:16.998Z,1017.92
2019-02-21T10:22:16.943Z,1017.91
2019-02-21T10:23:16.936Z,1017.94
2019-02-21T10:24:16.925Z,1017.94
2019-02-21T10:25:16.905Z,1017.80
2019-02-21T10:26:16.896Z,1017.84
2019-02-21T10:27:16.921Z,1017.82
2019-02-21T10:28:16.882Z,1017.78
2019-02-21T10:29:16.870Z,1017.74
2019-02-21T10:30:16.861Z,1017.81
2019-02-21T10:31:16.854Z,1017.77
2019-02-21T10:32:16.838Z,1017.80
2019-02-21T10:33:16.856Z,1017.83
2019-02-21T10:34:16.811Z,1017.79
2019-02-21T10:35:16.802Z,1017.83
2019-02-21T10:36:24.880Z,1017.74
2019-02-21T10:37:16.770Z,1017.82
2019-02-21T10:38:16.793Z,1017.85
2019-02-21T10:39:16.754Z,1017.79
2019-02-21T10:40:16.749Z,1017.78
2019-02-21T10:41:16.776Z,1017.74
2019-02-21T10:42:16.717Z,1017.89
2019-02-21T10:43:16.706Z,1017.75
2019-02-21T10:44:16.722Z,1017.77
2019-02-21T10:45:16.689Z,1017.85
2019-02-21T10:46:16.689Z,1017.81
2019-02-21T10:47:16.675Z,1017.71
2019-02-21T10:48:16.660Z,1017.69
2019-02-21T10:49:16.682Z,1017.67
2019-02-21T10:50:16.660Z,1017.66
2019-02-21T10:51:16.623Z,1017.71
2019-02-21T10:52:16.619Z,1017.68
2019-02-21T10:53:16.621Z,1017.63
2019-02-21T10:54:16.604Z,1017.50
2019-02-21T10:55:16.608Z,1017.62
2019-02-21T10:56:16.569Z,1017.48
2019-02-21T10:57:16.561Z,1017.59
2019-02-21T10:58:16.555Z,1017.56
2019-02-21T10:59:16.543Z,1017.58
2019-02-21T11:00:16.537Z,1017.53
2019-02-21T11:01:16.556Z,1017.57
2019-02-21T11:02:16.516Z,1017.48
2019-02-21T11:03:16.492Z,1017.44
2019-02-21T11:04:16.488Z,1017.45
2019-02-21T11:05:16.501Z,1017.45
2019-02-21T11:06:16.468Z,1017.45
2019-02-21T11:07:16.464Z,1017.46
2019-02-21T11:08:16.462Z,1017.48
2019-02-21T11:09:16.429Z,1017.31
2019-02-21T11:10:19.037Z,1017.43
2019-02-21T11:11:17.192Z,1017.38
2019-02-21T11:12:16.405Z,1017.36
2019-02-21T11:13:16.419Z,1017.27
2019-02-21T11:14:16.378Z,1017.28
2019-02-21T11:15:16.401Z,1017.18
2019-02-21T11:16:16.357Z,1017.22
2019-02-21T11:17:16.355Z,1017.23
2019-02-21T11:18:16.373Z,1017.16
2019-02-21T11:19:16.328Z,1017.19
2019-02-21T11:20:16.326Z,1017.18
2019-02-21T11:21:16.309Z,1017.14
2019-02-21T11:22:16.289Z,1017.11
2019-02-21T11:23:16.281Z,1017.13
2019-02-21T11:24:16.299Z,1017.15
2019-02-21T11:25:16.264Z,1017.16
2019-02-21T11:26:16.246Z,1017.18
2019-02-21T11:27:16.240Z,1017.17
2019-02-21T11:28:16.227Z,1017.10
2019-02-21T11:29:16.247Z,1017.11
2019-02-21T11:30:16.230Z,1017.13
2019-02-21T11:31:16.200Z,1017.22
2019-02-21T11:32:16.208Z,1017.15
2019-02-21T11:33:16.180Z,1017.10
2019-02-21T11:34:16.162Z,1017.10
2019-02-21T11:35:16.171Z,1017.01
2019-02-21T11:36:16.143Z,1017.04
2019-02-21T11:37:16.133Z,1017.00
2019-02-21T11:38:16.129Z,1016.98
2019-02-21T11:39:16.136Z,1016.97
2019-02-21T11:40:16.141Z,1016.90
2019-02-21T11:41:16.090Z,1016.92
2019-02-21T11:42:16.079Z,1017.02
2019-02-21T11:43:16.067Z,1016.96
2019-02-21T11:44:16.059Z,1016.99
2019-02-21T11:45:16.049Z,1016.91
2019-02-21T11:46:16.063Z,1016.93
2019-02-21T11:47:16.021Z,1016.95
2019-02-21T11:48:16.007Z,1016.86
2019-02-21T11:49:16.001Z,1016.85
2019-02-21T11:50:15.996Z,1016.84
2019-02-21T11:51:16.007Z,1016.89
2019-02-21T11:52:15.971Z,1016.83
2019-02-21T11:53:15.963Z,1016.86
2019-02-21T11:54:24.210Z,1016.86
2019-02-21T11:55:16.984Z,1016.87
2019-02-21T11:56:15.954Z,1016.82
2019-02-21T11:57:15.921Z,1016.83
2019-02-21T11:58:15.902Z,1016.86
2019-02-21T11:59:16.237Z,1016.80
2019-02-21T12:00:15.914Z,1016.84
2019-02-21T12:01:15.873Z,1016.87
2019-02-21T12:02:15.881Z,1016.84
2019-02-21T12:03:15.882Z,1016.91
2019-02-21T12:04:15.871Z,1016.90
2019-02-21T12:05:17.726Z,1016.95